首页
METAR-TAF:

METAR-TAF

机场 :

Four Corners Regional Airport

Farmington, 新墨西哥州, 美国

纬度: 36-44-37N, 经度: 108-13-45W, 海拔: 1677米

当前天气观测

该预报发布于58分钟前的07:53 UTC
风速3节,风向
温度 -4°C
湿度 86%
气压 1024 hPa
能見度: 16.1公里
天空无云

METAR: KFMN 120753Z AUTO 09003KT 10SM CLR M04/M06 A3023 RMK AO2 SLP255 T10441061

时间: 01:51 (08:51 UTC)

预报

该预报发布于3小时和25分钟前的05:26 UTC
预报有效从12日的 06点(UTC)到 13日的 06点(UTC)
风速4节,风向多变
能見度: 10公里
少量云层高于25000英尺
从 12日的 1000点(UTC)
风速6节,风向
能見度: 10公里
散云层高于25000英尺
从 12日的 2000点(UTC)
风速10节,风向西转西北
能見度: 10公里
多云层高于18000英尺

TAF: KFMN 120526Z 1206/1306 VRB04KT P6SM FEW250 FM121000 08006KT P6SM SCT250 FM122000 29010KT P6SM BKN180

超过4000个机场的气象观测和天气预报(METAR&TAF报告)。

可查询的气象台以黄色和红色小点在地图上表示。

将鼠标移到小点上方,可查看气象台名称。

然后点击查看天气观测和预报。

如需切换地图:点击带黑十字的绿色按钮放大地图;点击带横线的绿色按钮缩小地图;或者点击绿色箭头查看邻近地区的地图。


METAR-TAF: